2026/08/25

Sensor Date Temp./Hum.
h3-hermonville 25-08-2026 - 23:59 19.8°C / 74.5%
h4-hermonville 25-08-2026 - 23:58 18.1°C / 81.5%
h2-hermonville 25-08-2026 - 23:53 20.6°C / 72.5%
h1-hermonville 25-08-2026 - 23:53 18.3°C / 81.5%
h3-hermonville 25-08-2026 - 23:49 19.9°C / 74%
h2-hermonville 25-08-2026 - 23:43 20.4°C / 73%
h1-hermonville 25-08-2026 - 23:43 18.8°C / 79.5%
h3-hermonville 25-08-2026 - 23:39 20°C / 74%
h4-hermonville 25-08-2026 - 23:38 18.4°C / 80%
h2-hermonville 25-08-2026 - 23:33 20.5°C / 73%
h1-hermonville 25-08-2026 - 23:33 18.9°C / 79.5%
h3-hermonville 25-08-2026 - 23:29 20°C / 74%
h2-hermonville 25-08-2026 - 23:23 20.5°C / 73%
h1-hermonville 25-08-2026 - 23:23 19.1°C / 79%
h3-hermonville 25-08-2026 - 23:19 20.1°C / 73.5%
h4-hermonville 25-08-2026 - 23:18 18.8°C / 79%
h2-hermonville 25-08-2026 - 23:13 20.5°C / 73%
h1-hermonville 25-08-2026 - 23:13 19.2°C / 78.5%
h3-hermonville 25-08-2026 - 23:09 20.2°C / 73.5%
h2-hermonville 25-08-2026 - 23:03 20.5°C / 72.5%
h1-hermonville 25-08-2026 - 23:03 19.4°C / 78%
h3-hermonville 25-08-2026 - 22:59 20.2°C / 73%
h2-hermonville 25-08-2026 - 22:53 20.8°C / 72%
h1-hermonville 25-08-2026 - 22:53 19.6°C / 77%
h3-hermonville 25-08-2026 - 22:49 20.2°C / 73%
h2-hermonville 25-08-2026 - 22:43 20.9°C / 71%
h1-hermonville 25-08-2026 - 22:43 19.7°C / 76.5%
h3-hermonville 25-08-2026 - 22:39 20.5°C / 72%
h2-hermonville 25-08-2026 - 22:33 21.2°C / 70%
h3-hermonville 25-08-2026 - 22:29 20.6°C / 71.5%
h2-hermonville 25-08-2026 - 22:23 21.3°C / 69.5%
h1-hermonville 25-08-2026 - 22:23 19.5°C / 77.5%
h3-hermonville 25-08-2026 - 22:19 20.8°C / 71%
h2-hermonville 25-08-2026 - 22:13 21.5°C / 69.5%
h1-hermonville 25-08-2026 - 22:13 19.5°C / 77%
h3-hermonville 25-08-2026 - 22:09 20.9°C / 71%
h2-hermonville 25-08-2026 - 22:03 21.5°C / 70%
h1-hermonville 25-08-2026 - 22:03 19.8°C / 76%
h3-hermonville 25-08-2026 - 21:59 21°C / 70.5%
h2-hermonville 25-08-2026 - 21:53 21.4°C / 70%
h1-hermonville 25-08-2026 - 21:53 20.3°C / 74.5%
h3-hermonville 25-08-2026 - 21:49 21.2°C / 70.5%
h2-hermonville 25-08-2026 - 21:43 21.5°C / 70%
h1-hermonville 25-08-2026 - 21:43 20.6°C / 74%
h3-hermonville 25-08-2026 - 21:39 21.2°C / 70.5%
h1-hermonville 25-08-2026 - 21:33 20.6°C / 73.5%
h3-hermonville 25-08-2026 - 21:29 21.2°C / 70%
h2-hermonville 25-08-2026 - 21:23 21.7°C / 69%
h1-hermonville 25-08-2026 - 21:23 20.8°C / 73%
h3-hermonville 25-08-2026 - 21:19 21.4°C / 70%
h2-hermonville 25-08-2026 - 21:13 21.8°C / 69%
h1-hermonville 25-08-2026 - 21:13 20.9°C / 73%
h3-hermonville 25-08-2026 - 21:09 21.5°C / 69.5%
h2-hermonville 25-08-2026 - 21:03 22°C / 68.5%
h1-hermonville 25-08-2026 - 21:03 20.9°C / 72.5%
h3-hermonville 25-08-2026 - 20:59 21.6°C / 69.5%
h2-hermonville 25-08-2026 - 20:53 22°C / 68.5%
h1-hermonville 25-08-2026 - 20:53 21°C / 72%
h3-hermonville 25-08-2026 - 20:49 21.6°C / 69%
h2-hermonville 25-08-2026 - 20:43 22.1°C / 68.5%
h1-hermonville 25-08-2026 - 20:43 21.1°C / 71.5%
h2-hermonville 25-08-2026 - 20:33 22.2°C / 68%
h3-hermonville 25-08-2026 - 20:29 21.8°C / 68.5%
h2-hermonville 25-08-2026 - 20:23 22.4°C / 67.5%
h1-hermonville 25-08-2026 - 20:23 21.4°C / 71%
h3-hermonville 25-08-2026 - 20:19 22°C / 68.5%
h2-hermonville 25-08-2026 - 20:13 22.6°C / 66.5%
h1-hermonville 25-08-2026 - 20:13 21.5°C / 70%
h2-hermonville 25-08-2026 - 20:03 22.7°C / 65.5%
h1-hermonville 25-08-2026 - 20:03 21.7°C / 69.5%
h3-hermonville 25-08-2026 - 19:59 22.2°C / 66.5%
h2-hermonville 25-08-2026 - 19:53 22.9°C / 64.5%
h1-hermonville 25-08-2026 - 19:53 22.1°C / 68.5%
h4-hermonville 25-08-2026 - 19:48 22°C / 67%
h2-hermonville 25-08-2026 - 19:43 23.4°C / 63.5%
h1-hermonville 25-08-2026 - 19:43 22.2°C / 67.5%
h3-hermonville 25-08-2026 - 19:39 22.5°C / 65.5%
h4-hermonville 25-08-2026 - 19:38 22.3°C / 66%
h2-hermonville 25-08-2026 - 19:33 23.8°C / 62%
h1-hermonville 25-08-2026 - 19:33 22.4°C / 67%
h3-hermonville 25-08-2026 - 19:29 22.8°C / 64.5%
h4-hermonville 25-08-2026 - 19:28 22.6°C / 65.5%
h2-hermonville 25-08-2026 - 19:23 24.3°C / 61.5%
h1-hermonville 25-08-2026 - 19:23 22.6°C / 67%
h3-hermonville 25-08-2026 - 19:19 23°C / 65%
h4-hermonville 25-08-2026 - 19:18 22.7°C / 65%
h2-hermonville 25-08-2026 - 19:13 24.3°C / 61%
h1-hermonville 25-08-2026 - 19:13 22.7°C / 66.5%
h3-hermonville 25-08-2026 - 19:09 23.2°C / 64.5%
h4-hermonville 25-08-2026 - 19:08 22.9°C / 65%
h1-hermonville 25-08-2026 - 19:03 22.9°C / 66%
h3-hermonville 25-08-2026 - 18:59 23.3°C / 64%
h4-hermonville 25-08-2026 - 18:58 23.1°C / 64.5%
h2-hermonville 25-08-2026 - 18:53 24.9°C / 60%
h1-hermonville 25-08-2026 - 18:53 23.1°C / 65.5%
h3-hermonville 25-08-2026 - 18:49 23.4°C / 63.5%
h4-hermonville 25-08-2026 - 18:48 23.3°C / 63%
h2-hermonville 25-08-2026 - 18:43 25.4°C / 58.5%
h1-hermonville 25-08-2026 - 18:43 23.3°C / 65%
h3-hermonville 25-08-2026 - 18:39 23.5°C / 63.5%
h4-hermonville 25-08-2026 - 18:38 23.5°C / 63%
h2-hermonville 25-08-2026 - 18:33 25.4°C / 58.5%
h1-hermonville 25-08-2026 - 18:33 23.3°C / 65%
h3-hermonville 25-08-2026 - 18:29 23.5°C / 63.5%
h4-hermonville 25-08-2026 - 18:28 23.5°C / 63.5%
h2-hermonville 25-08-2026 - 18:23 25.2°C / 59%
h1-hermonville 25-08-2026 - 18:23 23.5°C / 65%
h3-hermonville 25-08-2026 - 18:19 23.6°C / 63.5%
h4-hermonville 25-08-2026 - 18:18 23.4°C / 63%
h2-hermonville 25-08-2026 - 18:13 25.1°C / 59%
h1-hermonville 25-08-2026 - 18:13 23.4°C / 64.5%
h3-hermonville 25-08-2026 - 18:09 23.5°C / 63%
h4-hermonville 25-08-2026 - 18:08 23.5°C / 63.5%
h2-hermonville 25-08-2026 - 18:03 25.4°C / 58.5%
h1-hermonville 25-08-2026 - 18:03 23.5°C / 64.5%
h3-hermonville 25-08-2026 - 17:59 23.6°C / 62.5%
h4-hermonville 25-08-2026 - 17:58 23.6°C / 63%
h2-hermonville 25-08-2026 - 17:53 25.3°C / 58%
h1-hermonville 25-08-2026 - 17:53 23.6°C / 64%
h3-hermonville 25-08-2026 - 17:49 23.8°C / 62.5%
h4-hermonville 25-08-2026 - 17:48 23.6°C / 63%
h2-hermonville 25-08-2026 - 17:43 25.5°C / 58%
h1-hermonville 25-08-2026 - 17:43 23.5°C / 64%
h3-hermonville 25-08-2026 - 17:39 24°C / 62%
h4-hermonville 25-08-2026 - 17:38 23.7°C / 62%
h2-hermonville 25-08-2026 - 17:33 25.5°C / 57.5%
h1-hermonville 25-08-2026 - 17:33 23.8°C / 63%
h3-hermonville 25-08-2026 - 17:29 24.1°C / 61%
h4-hermonville 25-08-2026 - 17:28 23.9°C / 61.5%
h2-hermonville 25-08-2026 - 17:23 25.8°C / 57%
h1-hermonville 25-08-2026 - 17:23 23.9°C / 63%
h3-hermonville 25-08-2026 - 17:19 24.3°C / 60.5%
h4-hermonville 25-08-2026 - 17:18 24°C / 61%
h2-hermonville 25-08-2026 - 17:13 25.9°C / 57%
h1-hermonville 25-08-2026 - 17:13 24.1°C / 62%
h4-hermonville 25-08-2026 - 17:08 24°C / 61%
h2-hermonville 25-08-2026 - 17:03 25.7°C / 57%
h3-hermonville 25-08-2026 - 16:59 24.4°C / 60.5%
h4-hermonville 25-08-2026 - 16:58 24.1°C / 61%
h1-hermonville 25-08-2026 - 16:53 24.2°C / 61.5%
h3-hermonville 25-08-2026 - 16:49 24.4°C / 60.5%
h1-hermonville 25-08-2026 - 16:43 24°C / 62%
h3-hermonville 25-08-2026 - 16:39 24.3°C / 60%
h4-hermonville 25-08-2026 - 16:38 24.2°C / 60.5%
h2-hermonville 25-08-2026 - 16:33 25.1°C / 59%
h1-hermonville 25-08-2026 - 16:33 24.3°C / 61.5%
h3-hermonville 25-08-2026 - 16:29 24.3°C / 60%
h4-hermonville 25-08-2026 - 16:28 24.1°C / 61%
h2-hermonville 25-08-2026 - 16:23 24.1°C / 61.5%
h1-hermonville 25-08-2026 - 16:23 23.8°C / 62.5%
h3-hermonville 25-08-2026 - 16:19 24.4°C / 60%
h4-hermonville 25-08-2026 - 16:18 24°C / 61%
h2-hermonville 25-08-2026 - 16:13 24.2°C / 61%
h3-hermonville 25-08-2026 - 16:09 24.7°C / 58.5%
h4-hermonville 25-08-2026 - 16:08 24°C / 60.5%
h2-hermonville 25-08-2026 - 16:03 24.2°C / 61.5%
h1-hermonville 25-08-2026 - 16:03 23.7°C / 62.5%
h3-hermonville 25-08-2026 - 15:59 24.7°C / 59%
h4-hermonville 25-08-2026 - 15:58 23.9°C / 60.5%
h2-hermonville 25-08-2026 - 15:53 24.1°C / 61%
h3-hermonville 25-08-2026 - 15:49 24.8°C / 59%
h4-hermonville 25-08-2026 - 15:48 24°C / 60%
h2-hermonville 25-08-2026 - 15:43 23.9°C / 61.5%
h1-hermonville 25-08-2026 - 15:43 23.7°C / 62.5%
h3-hermonville 25-08-2026 - 15:39 24.4°C / 59%
h4-hermonville 25-08-2026 - 15:38 23.9°C / 60%
h2-hermonville 25-08-2026 - 15:33 23.8°C / 61.5%
h1-hermonville 25-08-2026 - 15:33 23.5°C / 62.5%
h3-hermonville 25-08-2026 - 15:29 24.6°C / 58%
h4-hermonville 25-08-2026 - 15:28 24°C / 59%
h2-hermonville 25-08-2026 - 15:23 23.7°C / 61%
h1-hermonville 25-08-2026 - 15:23 23.6°C / 61.5%
h3-hermonville 25-08-2026 - 15:19 24.6°C / 58%
h4-hermonville 25-08-2026 - 15:18 23.9°C / 59.5%
h2-hermonville 25-08-2026 - 15:13 23.5°C / 61.5%
h1-hermonville 25-08-2026 - 15:13 23.6°C / 61.5%
h3-hermonville 25-08-2026 - 15:09 24.4°C / 58.5%
h4-hermonville 25-08-2026 - 15:08 23.7°C / 60%
h2-hermonville 25-08-2026 - 15:03 23.2°C / 63%
h1-hermonville 25-08-2026 - 15:03 23.2°C / 63.5%
h3-hermonville 25-08-2026 - 14:59 24.2°C / 58.5%
h4-hermonville 25-08-2026 - 14:58 23.7°C / 60%
h2-hermonville 25-08-2026 - 14:53 23.1°C / 62.5%
h1-hermonville 25-08-2026 - 14:53 23.1°C / 64%
h3-hermonville 25-08-2026 - 14:49 23.9°C / 59%
h4-hermonville 25-08-2026 - 14:48 23.5°C / 60.5%
h2-hermonville 25-08-2026 - 14:43 22.9°C / 63.5%
h1-hermonville 25-08-2026 - 14:43 22.8°C / 64%
h3-hermonville 25-08-2026 - 14:39 24.2°C / 58.5%
h4-hermonville 25-08-2026 - 14:38 23.2°C / 61.5%
h2-hermonville 25-08-2026 - 14:33 22.6°C / 63.5%
h1-hermonville 25-08-2026 - 14:33 22.5°C / 64%
h3-hermonville 25-08-2026 - 14:29 23.8°C / 59%
h4-hermonville 25-08-2026 - 14:28 23°C / 61.5%
h2-hermonville 25-08-2026 - 14:23 22.6°C / 63%
h3-hermonville 25-08-2026 - 14:19 23.9°C / 58.5%
h4-hermonville 25-08-2026 - 14:18 23.1°C / 60%
h2-hermonville 25-08-2026 - 14:13 22.8°C / 62.5%
h1-hermonville 25-08-2026 - 14:13 22.7°C / 62.5%
h4-hermonville 25-08-2026 - 14:08 22.9°C / 61%
h2-hermonville 25-08-2026 - 14:03 22.5°C / 63%
h1-hermonville 25-08-2026 - 14:03 22.4°C / 63.5%
h3-hermonville 25-08-2026 - 13:59 23.4°C / 59.5%
h4-hermonville 25-08-2026 - 13:58 22.7°C / 61%
h2-hermonville 25-08-2026 - 13:53 22.2°C / 63.5%
h1-hermonville 25-08-2026 - 13:53 22.2°C / 63.5%
h3-hermonville 25-08-2026 - 13:49 23.3°C / 60%
h4-hermonville 25-08-2026 - 13:48 22.7°C / 61.5%
h2-hermonville 25-08-2026 - 13:43 22.3°C / 63.5%
h1-hermonville 25-08-2026 - 13:43 22.1°C / 64%
h3-hermonville 25-08-2026 - 13:39 23.3°C / 59.5%
h4-hermonville 25-08-2026 - 13:38 22.6°C / 60.5%
h2-hermonville 25-08-2026 - 13:33 22.2°C / 63%
h1-hermonville 25-08-2026 - 13:33 22.1°C / 63.5%
h3-hermonville 25-08-2026 - 13:29 23°C / 60%
h4-hermonville 25-08-2026 - 13:28 22.6°C / 60.5%
h1-hermonville 25-08-2026 - 13:23 21.9°C / 64.5%
h3-hermonville 25-08-2026 - 13:19 23.1°C / 60.5%
h4-hermonville 25-08-2026 - 13:18 22.3°C / 61.5%
h2-hermonville 25-08-2026 - 13:13 21.7°C / 64.5%
h1-hermonville 25-08-2026 - 13:13 21.7°C / 65%
h3-hermonville 25-08-2026 - 13:09 22.8°C / 61%
h4-hermonville 25-08-2026 - 13:08 22.3°C / 61.5%
h2-hermonville 25-08-2026 - 13:03 21.4°C / 65%
h3-hermonville 25-08-2026 - 12:59 22.4°C / 62.5%
h4-hermonville 25-08-2026 - 12:58 21.9°C / 62.5%
h2-hermonville 25-08-2026 - 12:53 21.3°C / 66%
h1-hermonville 25-08-2026 - 12:53 21.4°C / 66%
h3-hermonville 25-08-2026 - 12:49 22.2°C / 63%
h2-hermonville 25-08-2026 - 12:43 21.1°C / 66%
h1-hermonville 25-08-2026 - 12:43 21.2°C / 66%
h3-hermonville 25-08-2026 - 12:39 21.7°C / 63.5%
h4-hermonville 25-08-2026 - 12:38 21.4°C / 63.5%
h2-hermonville 25-08-2026 - 12:33 20.7°C / 67%
h1-hermonville 25-08-2026 - 12:33 20.8°C / 67%
h3-hermonville 25-08-2026 - 12:29 21.3°C / 65.5%
h4-hermonville 25-08-2026 - 12:28 21.1°C / 65.5%
h2-hermonville 25-08-2026 - 12:23 20.5°C / 67.5%
h1-hermonville 25-08-2026 - 12:23 20.4°C / 68.5%
h3-hermonville 25-08-2026 - 12:19 20.8°C / 66%
h4-hermonville 25-08-2026 - 12:18 20.8°C / 65.5%
h2-hermonville 25-08-2026 - 12:13 20.4°C / 68%
h1-hermonville 25-08-2026 - 12:13 20.3°C / 68.5%
h3-hermonville 25-08-2026 - 12:09 20.7°C / 66.5%
h4-hermonville 25-08-2026 - 12:08 20.7°C / 66.5%
h2-hermonville 25-08-2026 - 12:03 20.4°C / 68.5%
h1-hermonville 25-08-2026 - 12:03 20.2°C / 69.5%
h3-hermonville 25-08-2026 - 11:59 20.3°C / 68%
h4-hermonville 25-08-2026 - 11:58 20.3°C / 67.5%
h2-hermonville 25-08-2026 - 11:53 20°C / 69%
h1-hermonville 25-08-2026 - 11:53 19.9°C / 70.5%
h3-hermonville 25-08-2026 - 11:49 20.5°C / 68%
h4-hermonville 25-08-2026 - 11:48 20.4°C / 67.5%
h2-hermonville 25-08-2026 - 11:43 20.1°C / 69%
h1-hermonville 25-08-2026 - 11:43 19.8°C / 70%
h3-hermonville 25-08-2026 - 11:39 20.3°C / 67.5%
h4-hermonville 25-08-2026 - 11:38 20°C / 67.5%
h2-hermonville 25-08-2026 - 11:33 19.9°C / 69%
h1-hermonville 25-08-2026 - 11:33 19.7°C / 70%
h3-hermonville 25-08-2026 - 11:29 20°C / 67.5%
h4-hermonville 25-08-2026 - 11:28 20°C / 67.5%
h2-hermonville 25-08-2026 - 11:23 19.9°C / 68.5%
h1-hermonville 25-08-2026 - 11:23 19.6°C / 70%
h3-hermonville 25-08-2026 - 11:19 20°C / 68%
h4-hermonville 25-08-2026 - 11:18 20.1°C / 66.5%
h2-hermonville 25-08-2026 - 11:13 19.7°C / 69%
h1-hermonville 25-08-2026 - 11:13 19.5°C / 70%
h4-hermonville 25-08-2026 - 11:08 20.3°C / 66%
h2-hermonville 25-08-2026 - 11:03 19.7°C / 69%
h1-hermonville 25-08-2026 - 11:03 19.4°C / 70%
h3-hermonville 25-08-2026 - 10:59 19.9°C / 67%
h4-hermonville 25-08-2026 - 10:58 20.7°C / 64.5%
h2-hermonville 25-08-2026 - 10:53 19.5°C / 68.5%
h1-hermonville 25-08-2026 - 10:53 19.3°C / 70%
h3-hermonville 25-08-2026 - 10:49 19.5°C / 68.5%
h4-hermonville 25-08-2026 - 10:48 20.3°C / 66%
h2-hermonville 25-08-2026 - 10:43 19.2°C / 69%
h1-hermonville 25-08-2026 - 10:43 18.9°C / 70.5%
h3-hermonville 25-08-2026 - 10:39 19.5°C / 68.5%
h4-hermonville 25-08-2026 - 10:38 19.5°C / 68%
h2-hermonville 25-08-2026 - 10:33 18.9°C / 69.5%
h1-hermonville 25-08-2026 - 10:33 18.6°C / 71.5%
h3-hermonville 25-08-2026 - 10:29 19.2°C / 68.5%
h4-hermonville 25-08-2026 - 10:28 18.8°C / 69%
h2-hermonville 25-08-2026 - 10:23 18.9°C / 69%
h1-hermonville 25-08-2026 - 10:23 18.5°C / 71%
h3-hermonville 25-08-2026 - 10:19 19.2°C / 67%
h4-hermonville 25-08-2026 - 10:18 19°C / 68%
h2-hermonville 25-08-2026 - 10:13 18.8°C / 69%
h1-hermonville 25-08-2026 - 10:13 18.3°C / 71%
h3-hermonville 25-08-2026 - 10:09 19.1°C / 67%
h2-hermonville 25-08-2026 - 10:03 18.7°C / 68.5%
h1-hermonville 25-08-2026 - 10:03 18.3°C / 71%
h3-hermonville 25-08-2026 - 09:59 18.8°C / 67.5%
h4-hermonville 25-08-2026 - 09:58 19.6°C / 64.5%
h2-hermonville 25-08-2026 - 09:53 18.4°C / 68%
h1-hermonville 25-08-2026 - 09:53 17.6°C / 71.5%
h3-hermonville 25-08-2026 - 09:49 18.5°C / 66.5%
h4-hermonville 25-08-2026 - 09:48 17.6°C / 69.5%
h2-hermonville 25-08-2026 - 09:43 18.2°C / 67%
h1-hermonville 25-08-2026 - 09:43 17.1°C / 71.5%
h4-hermonville 25-08-2026 - 09:38 17.1°C / 69%
h2-hermonville 25-08-2026 - 09:33 18.2°C / 64%
h1-hermonville 25-08-2026 - 09:33 16.5°C / 71.5%
h3-hermonville 25-08-2026 - 09:29 18°C / 63%
h4-hermonville 25-08-2026 - 09:28 16.7°C / 67.5%
h2-hermonville 25-08-2026 - 09:23 18.1°C / 62.5%
h1-hermonville 25-08-2026 - 09:23 16.3°C / 70%
h3-hermonville 25-08-2026 - 09:19 17.9°C / 62.5%
h2-hermonville 25-08-2026 - 09:13 17.9°C / 62.5%
h1-hermonville 25-08-2026 - 09:13 16°C / 69%
h3-hermonville 25-08-2026 - 09:09 17.8°C / 62%
h4-hermonville 25-08-2026 - 09:08 16.6°C / 65%
h2-hermonville 25-08-2026 - 09:03 17.8°C / 62.5%
h1-hermonville 25-08-2026 - 09:03 15.9°C / 68.5%
h3-hermonville 25-08-2026 - 08:59 17.6°C / 62.5%
h4-hermonville 25-08-2026 - 08:58 16.8°C / 64%
h2-hermonville 25-08-2026 - 08:53 17.4°C / 63.5%
h1-hermonville 25-08-2026 - 08:53 15.7°C / 69.5%
h3-hermonville 25-08-2026 - 08:49 17.5°C / 63%
h4-hermonville 25-08-2026 - 08:48 16.6°C / 64.5%
h2-hermonville 25-08-2026 - 08:43 17.2°C / 64%
h3-hermonville 25-08-2026 - 08:39 17.3°C / 63.5%
h4-hermonville 25-08-2026 - 08:38 16.9°C / 64%
h2-hermonville 25-08-2026 - 08:33 16.9°C / 65.5%
h1-hermonville 25-08-2026 - 08:33 15.5°C / 70%
h3-hermonville 25-08-2026 - 08:29 17°C / 64%
h4-hermonville 25-08-2026 - 08:28 16.6°C / 64.5%
h2-hermonville 25-08-2026 - 08:23 16.7°C / 65.5%
h1-hermonville 25-08-2026 - 08:23 15.5°C / 70%
h3-hermonville 25-08-2026 - 08:19 16.8°C / 64.5%
h2-hermonville 25-08-2026 - 08:13 16.5°C / 66%
h1-hermonville 25-08-2026 - 08:13 15.4°C / 69.5%
h3-hermonville 25-08-2026 - 08:09 16.5°C / 65.5%
h4-hermonville 25-08-2026 - 08:08 16.5°C / 64%
h2-hermonville 25-08-2026 - 08:03 16.4°C / 67%
h1-hermonville 25-08-2026 - 08:03 15.2°C / 70%
h3-hermonville 25-08-2026 - 07:59 16.4°C / 66.5%
h4-hermonville 25-08-2026 - 07:58 16.4°C / 65%
h2-hermonville 25-08-2026 - 07:53 16.1°C / 67.5%
h1-hermonville 25-08-2026 - 07:53 15.1°C / 70.5%
h3-hermonville 25-08-2026 - 07:49 16.1°C / 67.5%
h4-hermonville 25-08-2026 - 07:48 16.1°C / 66.5%
h2-hermonville 25-08-2026 - 07:43 15.9°C / 69%
h1-hermonville 25-08-2026 - 07:43 15.3°C / 71.5%
h3-hermonville 25-08-2026 - 07:39 16.2°C / 68%
h4-hermonville 25-08-2026 - 07:38 16.1°C / 67%
h2-hermonville 25-08-2026 - 07:33 16.1°C / 68.5%
h1-hermonville 25-08-2026 - 07:33 15.2°C / 71.5%
h3-hermonville 25-08-2026 - 07:29 16°C / 68%
h4-hermonville 25-08-2026 - 07:28 16.1°C / 66%
h2-hermonville 25-08-2026 - 07:23 16.1°C / 68.5%
h1-hermonville 25-08-2026 - 07:23 15.1°C / 71%
h3-hermonville 25-08-2026 - 07:19 16°C / 68%
h4-hermonville 25-08-2026 - 07:18 16.1°C / 66.5%
h2-hermonville 25-08-2026 - 07:13 16°C / 68.5%
h1-hermonville 25-08-2026 - 07:13 15.1°C / 72%
h3-hermonville 25-08-2026 - 07:09 16.1°C / 67.5%
h4-hermonville 25-08-2026 - 07:08 16.1°C / 66%
h2-hermonville 25-08-2026 - 07:03 16°C / 68.5%
h1-hermonville 25-08-2026 - 07:03 15.3°C / 70.5%
h3-hermonville 25-08-2026 - 06:59 16.2°C / 67%
h4-hermonville 25-08-2026 - 06:58 16.3°C / 65%
h2-hermonville 25-08-2026 - 06:53 15.8°C / 68.5%
h1-hermonville 25-08-2026 - 06:53 15.7°C / 69%
h3-hermonville 25-08-2026 - 06:49 16.1°C / 67.5%
h4-hermonville 25-08-2026 - 06:48 16.5°C / 64.5%
h2-hermonville 25-08-2026 - 06:43 15.8°C / 68%
h1-hermonville 25-08-2026 - 06:43 15°C / 71.5%
h3-hermonville 25-08-2026 - 06:39 16.5°C / 66%
h4-hermonville 25-08-2026 - 06:38 16.4°C / 64.5%
h2-hermonville 25-08-2026 - 06:33 16.1°C / 67.5%
h1-hermonville 25-08-2026 - 06:33 15°C / 71%
h3-hermonville 25-08-2026 - 06:29 16.3°C / 66.5%
h4-hermonville 25-08-2026 - 06:28 16.3°C / 65.5%
h2-hermonville 25-08-2026 - 06:23 16.1°C / 67.5%
h1-hermonville 25-08-2026 - 06:23 15°C / 72%
h3-hermonville 25-08-2026 - 06:19 16.3°C / 66%
h4-hermonville 25-08-2026 - 06:18 16.3°C / 65.5%
h2-hermonville 25-08-2026 - 06:13 16.5°C / 66%
h1-hermonville 25-08-2026 - 06:13 15.1°C / 71%
h3-hermonville 25-08-2026 - 06:09 16.5°C / 65.5%
h4-hermonville 25-08-2026 - 06:08 16.6°C / 64.5%
h2-hermonville 25-08-2026 - 06:03 16.7°C / 66%
h1-hermonville 25-08-2026 - 06:03 15.3°C / 70%
h3-hermonville 25-08-2026 - 05:59 16.6°C / 64.5%
h4-hermonville 25-08-2026 - 05:58 16.5°C / 63.5%
h2-hermonville 25-08-2026 - 05:53 16.6°C / 65.5%
h1-hermonville 25-08-2026 - 05:53 15.3°C / 69%
h3-hermonville 25-08-2026 - 05:49 16.8°C / 63.5%
h4-hermonville 25-08-2026 - 05:48 16.9°C / 61.5%
h2-hermonville 25-08-2026 - 05:43 16.7°C / 63%
h1-hermonville 25-08-2026 - 05:43 15.3°C / 68%
h3-hermonville 25-08-2026 - 05:39 17.1°C / 61.5%
h4-hermonville 25-08-2026 - 05:38 16.8°C / 61.5%
h2-hermonville 25-08-2026 - 05:33 16.8°C / 63%
h1-hermonville 25-08-2026 - 05:33 15.4°C / 68%
h3-hermonville 25-08-2026 - 05:29 17.1°C / 62%
h4-hermonville 25-08-2026 - 05:28 16.9°C / 61%
h2-hermonville 25-08-2026 - 05:23 16.8°C / 62.5%
h1-hermonville 25-08-2026 - 05:23 15.5°C / 67.5%
h3-hermonville 25-08-2026 - 05:19 16.9°C / 62%
h4-hermonville 25-08-2026 - 05:18 17.1°C / 61%
h2-hermonville 25-08-2026 - 05:13 16.8°C / 63.5%
h1-hermonville 25-08-2026 - 05:13 15.4°C / 67.5%
h3-hermonville 25-08-2026 - 05:09 16.9°C / 62%
h4-hermonville 25-08-2026 - 05:08 16.8°C / 61.5%
h2-hermonville 25-08-2026 - 05:03 16.9°C / 63%
h1-hermonville 25-08-2026 - 05:03 15.5°C / 67.5%
h3-hermonville 25-08-2026 - 04:59 16.9°C / 62.5%
h4-hermonville 25-08-2026 - 04:58 16.9°C / 61.5%
h2-hermonville 25-08-2026 - 04:53 16.9°C / 64.5%
h1-hermonville 25-08-2026 - 04:53 15.4°C / 68%
h3-hermonville 25-08-2026 - 04:49 16.7°C / 64%
h2-hermonville 25-08-2026 - 04:43 16.8°C / 64.5%
h1-hermonville 25-08-2026 - 04:43 15.5°C / 68.5%
h3-hermonville 25-08-2026 - 04:39 16.9°C / 63%
h4-hermonville 25-08-2026 - 04:38 16.7°C / 63%
h2-hermonville 25-08-2026 - 04:33 16.8°C / 64%
h1-hermonville 25-08-2026 - 04:33 15.5°C / 67.5%
h3-hermonville 25-08-2026 - 04:29 16.8°C / 63%
h2-hermonville 25-08-2026 - 04:23 16.9°C / 63.5%
h1-hermonville 25-08-2026 - 04:23 15.5°C / 68.5%
h3-hermonville 25-08-2026 - 04:19 17°C / 62%
h4-hermonville 25-08-2026 - 04:18 16.6°C / 62.5%
h2-hermonville 25-08-2026 - 04:13 17°C / 62.5%
h1-hermonville 25-08-2026 - 04:13 15.5°C / 67.5%
h3-hermonville 25-08-2026 - 04:09 17.2°C / 61.5%
h4-hermonville 25-08-2026 - 04:08 16.3°C / 63%
h2-hermonville 25-08-2026 - 04:03 16.9°C / 63.5%
h1-hermonville 25-08-2026 - 04:03 15.5°C / 68%
h3-hermonville 25-08-2026 - 03:59 17.3°C / 61.5%
h4-hermonville 25-08-2026 - 03:58 16.3°C / 63.5%
h2-hermonville 25-08-2026 - 03:53 17°C / 62%
h1-hermonville 25-08-2026 - 03:53 15.6°C / 67.5%
h3-hermonville 25-08-2026 - 03:49 17.7°C / 59.5%
h4-hermonville 25-08-2026 - 03:48 16.4°C / 63%
h2-hermonville 25-08-2026 - 03:43 17°C / 62%
h1-hermonville 25-08-2026 - 03:43 15.5°C / 67%
h3-hermonville 25-08-2026 - 03:39 17.6°C / 60%
h4-hermonville 25-08-2026 - 03:38 16.4°C / 63%
h2-hermonville 25-08-2026 - 03:33 17.3°C / 62%
h3-hermonville 25-08-2026 - 03:29 17.8°C / 59%
h4-hermonville 25-08-2026 - 03:28 16.3°C / 63.5%
h2-hermonville 25-08-2026 - 03:23 17.7°C / 60.5%
h1-hermonville 25-08-2026 - 03:23 15.8°C / 66.5%
h3-hermonville 25-08-2026 - 03:19 18°C / 58.5%
h4-hermonville 25-08-2026 - 03:18 16.5°C / 62.5%
h2-hermonville 25-08-2026 - 03:13 17.6°C / 60.5%
h1-hermonville 25-08-2026 - 03:13 15.8°C / 66%
h3-hermonville 25-08-2026 - 03:09 17.9°C / 58.5%
h4-hermonville 25-08-2026 - 03:08 16.6°C / 62%
h1-hermonville 25-08-2026 - 03:03 15.9°C / 66%
h3-hermonville 25-08-2026 - 02:59 18°C / 58.5%
h4-hermonville 25-08-2026 - 02:58 16.6°C / 62%
h2-hermonville 25-08-2026 - 02:53 17.5°C / 60.5%
h1-hermonville 25-08-2026 - 02:53 15.9°C / 66%
h3-hermonville 25-08-2026 - 02:49 18.1°C / 58.5%
h4-hermonville 25-08-2026 - 02:48 16.7°C / 62%
h2-hermonville 25-08-2026 - 02:43 17.7°C / 60%
h1-hermonville 25-08-2026 - 02:43 16°C / 65.5%
h3-hermonville 25-08-2026 - 02:39 18.1°C / 58%
h4-hermonville 25-08-2026 - 02:38 16.7°C / 61.5%
h2-hermonville 25-08-2026 - 02:33 17.8°C / 60%
h1-hermonville 25-08-2026 - 02:33 16.1°C / 65%
h3-hermonville 25-08-2026 - 02:29 18.2°C / 58%
h4-hermonville 25-08-2026 - 02:28 16.9°C / 60.5%
h2-hermonville 25-08-2026 - 02:23 17.6°C / 60%
h1-hermonville 25-08-2026 - 02:23 16.1°C / 65%
h3-hermonville 25-08-2026 - 02:19 18.3°C / 58%
h4-hermonville 25-08-2026 - 02:18 17°C / 60.5%
h2-hermonville 25-08-2026 - 02:13 17.6°C / 60%
h1-hermonville 25-08-2026 - 02:13 16.1°C / 65.5%
h3-hermonville 25-08-2026 - 02:09 18.3°C / 58%
h4-hermonville 25-08-2026 - 02:08 17°C / 61%
h2-hermonville 25-08-2026 - 02:03 17.9°C / 59%
h1-hermonville 25-08-2026 - 02:03 16.2°C / 65%
h3-hermonville 25-08-2026 - 01:59 18.3°C / 57.5%
h4-hermonville 25-08-2026 - 01:58 17°C / 61%
h2-hermonville 25-08-2026 - 01:53 17.9°C / 59%
h1-hermonville 25-08-2026 - 01:53 16.3°C / 64.5%
h3-hermonville 25-08-2026 - 01:49 18.4°C / 57.5%
h4-hermonville 25-08-2026 - 01:48 17.1°C / 60%
h2-hermonville 25-08-2026 - 01:43 17.8°C / 59%
h1-hermonville 25-08-2026 - 01:43 16.4°C / 64%
h3-hermonville 25-08-2026 - 01:39 18.3°C / 58%
h4-hermonville 25-08-2026 - 01:38 17.3°C / 60%
h2-hermonville 25-08-2026 - 01:33 17.9°C / 59%
h1-hermonville 25-08-2026 - 01:33 16.4°C / 64%
h3-hermonville 25-08-2026 - 01:29 18.4°C / 57.5%
h4-hermonville 25-08-2026 - 01:28 17.2°C / 60%
h2-hermonville 25-08-2026 - 01:23 18.1°C / 59%
h1-hermonville 25-08-2026 - 01:23 16.3°C / 64.5%
h3-hermonville 25-08-2026 - 01:19 18.4°C / 57.5%
h4-hermonville 25-08-2026 - 01:18 17.2°C / 60.5%
h2-hermonville 25-08-2026 - 01:13 18.4°C / 58%
h1-hermonville 25-08-2026 - 01:13 16.4°C / 64.5%
h3-hermonville 25-08-2026 - 01:09 18.5°C / 57.5%
h4-hermonville 25-08-2026 - 01:08 17.4°C / 60%
h2-hermonville 25-08-2026 - 01:03 18.5°C / 57.5%
h1-hermonville 25-08-2026 - 01:03 16.5°C / 64%
h3-hermonville 25-08-2026 - 00:59 18.5°C / 57.5%
h4-hermonville 25-08-2026 - 00:58 17.4°C / 60%
h2-hermonville 25-08-2026 - 00:53 18.7°C / 57%
h1-hermonville 25-08-2026 - 00:53 16.6°C / 63.5%
h3-hermonville 25-08-2026 - 00:49 18.5°C / 57%
h4-hermonville 25-08-2026 - 00:48 17.5°C / 59%
h2-hermonville 25-08-2026 - 00:43 18.4°C / 59%
h1-hermonville 25-08-2026 - 00:43 16.6°C / 63.5%
h3-hermonville 25-08-2026 - 00:39 18.5°C / 57.5%
h2-hermonville 25-08-2026 - 00:33 18.5°C / 58%
h1-hermonville 25-08-2026 - 00:33 16.7°C / 64%
h3-hermonville 25-08-2026 - 00:29 18.3°C / 58.5%
h4-hermonville 25-08-2026 - 00:28 18.1°C / 58.5%
h2-hermonville 25-08-2026 - 00:23 18.5°C / 58%
h1-hermonville 25-08-2026 - 00:23 16.8°C / 63.5%
h3-hermonville 25-08-2026 - 00:19 18.6°C / 57%
h4-hermonville 25-08-2026 - 00:18 17.8°C / 59%
h2-hermonville 25-08-2026 - 00:13 18.6°C / 58%
h1-hermonville 25-08-2026 - 00:13 16.9°C / 63.5%
h4-hermonville 25-08-2026 - 00:08 17.7°C / 59%
h2-hermonville 25-08-2026 - 00:03 18.8°C / 57%
h1-hermonville 25-08-2026 - 00:03 17.1°C / 63%